Terminal Aerodrome Forecast
Issued by NWS Mt. Holly, NJ

Home | Current Version | Previous Version | Text Only | Print | Product List | Glossary On
Versions: 1 2 3 4 5 6 7 8 9 10 11 12 13 14 15 16 17 18 19 20 21 22 23 24 25 26 27 28 29 30 31 32 33 34 35
000
FTUS41 KPHI 021941 AAC
TAFPHL
TAF AMD
KPHL 021941Z 0220/0324 VRB04KT P6SM BKN010
     FM022100 17005KT P6SM BKN012
     FM030100 14005KT 5SM -SHRA BR OVC009
     FM030400 08005KT 3SM SHRA BR OVC004
     FM031200 04009KT 4SM -DZ BR OVC005
     FM031500 02008KT 6SM BR OVC008
     FM031800 03007KT P6SM OVC012=

USA.gov is the U.S. government's official web portal to all federal, state and local government web resources and services.